createdAt,value
2017-04-13T00:00:56.072Z,17.54
2017-04-13T00:02:06.083Z,17.55
2017-04-13T00:03:15.476Z,17.54
2017-04-13T00:04:25.837Z,17.5
2017-04-13T00:05:35.863Z,17.5
2017-04-13T00:06:45.892Z,17.52
2017-04-13T00:07:56.227Z,17.54
2017-04-13T00:09:06.556Z,17.58
2017-04-13T00:10:16.882Z,17.54
2017-04-13T00:11:27.217Z,17.54
2017-04-13T00:12:37.588Z,17.42
2017-04-13T00:13:47.604Z,17.46
2017-04-13T00:14:57.939Z,17.46
2017-04-13T00:16:08.270Z,17.47
2017-04-13T00:17:18.610Z,17.46
2017-04-13T00:18:28.681Z,17.39
2017-04-13T00:19:39.014Z,17.4
2017-04-13T00:20:49.045Z,17.43
2017-04-13T00:21:59.058Z,17.4
2017-04-13T00:23:09.423Z,17.49
2017-04-13T00:24:19.467Z,17.46
2017-04-13T00:25:29.802Z,17.38
2017-04-13T00:26:39.830Z,17.52
2017-04-13T00:27:49.853Z,17.45
2017-04-13T00:29:00.225Z,17.45
2017-04-13T00:30:10.315Z,17.45
2017-04-13T00:31:20.344Z,17.43
2017-04-13T00:32:30.390Z,17.47
2017-04-13T00:33:40.145Z,17.43
2017-04-13T00:34:50.474Z,17.4
2017-04-13T00:35:59.884Z,17.45
2017-04-13T00:37:09.891Z,17.42
2017-04-13T00:38:20.232Z,17.4
2017-04-13T00:39:30.591Z,17.32
2017-04-13T00:40:40.969Z,17.36
2017-04-13T00:41:51.308Z,17.31
2017-04-13T00:43:01.022Z,17.28
2017-04-13T00:44:11.352Z,17.31
2017-04-13T00:45:21.698Z,17.28
2017-04-13T00:46:31.727Z,17.31
2017-04-13T00:47:42.062Z,17.32
2017-04-13T00:48:52.087Z,17.17
2017-04-13T00:50:02.174Z,17.3
2017-04-13T00:51:12.206Z,17.2
2017-04-13T00:52:22.551Z,17.18
2017-04-13T00:53:32.585Z,17.15
2017-04-13T00:54:42.303Z,17.17
2017-04-13T00:55:52.631Z,17.18
2017-04-13T00:57:02.654Z,17.06
2017-04-13T00:58:12.686Z,17.1
2017-04-13T00:59:22.752Z,17.13
2017-04-13T01:00:32.777Z,17.09
2017-04-13T01:01:42.824Z,17.13
2017-04-13T01:02:52.855Z,17.09
2017-04-13T01:04:02.889Z,17.1
2017-04-13T01:05:13.211Z,17.05
2017-04-13T01:06:23.549Z,17.09
2017-04-13T01:07:33.564Z,17.07
2017-04-13T01:08:43.606Z,17.07
2017-04-13T01:09:53.949Z,17.07
2017-04-13T01:11:04.286Z,17.1
2017-04-13T01:12:14.316Z,17.03
2017-04-13T01:13:24.668Z,17.03
2017-04-13T01:14:34.999Z,16.92
2017-04-13T01:15:45.023Z,16.91
2017-04-13T01:16:55.068Z,16.88
2017-04-13T01:18:05.089Z,16.88
2017-04-13T01:19:14.789Z,16.82
2017-04-13T01:20:24.814Z,16.94
2017-04-13T01:21:35.169Z,16.85
2017-04-13T01:22:45.566Z,16.87
2017-04-13T01:23:55.923Z,16.85
2017-04-13T01:25:06.240Z,16.8
2017-04-13T01:26:16.581Z,16.84
2017-04-13T01:27:26.918Z,16.77
2017-04-13T01:28:36.958Z,16.7
2017-04-13T01:29:46.996Z,16.81
2017-04-13T01:30:57.330Z,16.7
2017-04-13T01:32:07.357Z,16.72
2017-04-13T01:33:17.680Z,16.67
2017-04-13T01:34:28.070Z,16.69
2017-04-13T01:35:38.412Z,16.63
2017-04-13T01:36:48.447Z,16.7
2017-04-13T01:37:58.779Z,16.67
2017-04-13T01:39:09.115Z,16.69
2017-04-13T01:40:19.452Z,16.76
2017-04-13T01:41:29.785Z,16.7
2017-04-13T01:42:40.123Z,16.65
2017-04-13T01:43:50.483Z,16.65
2017-04-13T01:45:00.807Z,16.7
2017-04-13T01:46:11.146Z,16.66
2017-04-13T01:47:21.473Z,16.57
2017-04-13T01:48:31.185Z,16.62
2017-04-13T01:49:41.527Z,16.63
2017-04-13T01:50:51.869Z,16.62
2017-04-13T01:52:02.206Z,16.58
2017-04-13T01:53:11.911Z,16.58
2017-04-13T01:54:21.928Z,16.58
2017-04-13T01:55:32.262Z,16.59
2017-04-13T01:56:42.591Z,16.54
2017-04-13T01:57:52.975Z,16.54
2017-04-13T01:59:03.011Z,16.65
2017-04-13T02:00:13.033Z,16.62
2017-04-13T02:01:22.426Z,16.63
2017-04-13T02:02:32.445Z,16.62
2017-04-13T02:03:42.468Z,16.62
2017-04-13T02:04:52.796Z,16.62
2017-04-13T02:06:03.131Z,16.54
2017-04-13T02:07:13.468Z,16.57
2017-04-13T02:08:23.509Z,16.57
2017-04-13T02:09:33.540Z,16.59
2017-04-13T02:10:43.883Z,16.44
2017-04-13T02:11:53.596Z,16.48
2017-04-13T02:13:03.660Z,16.4
2017-04-13T02:14:13.682Z,16.42
2017-04-13T02:15:24.030Z,16.45
2017-04-13T02:16:34.052Z,16.45
2017-04-13T02:17:44.407Z,16.47
2017-04-13T02:18:54.759Z,16.44
2017-04-13T02:20:05.091Z,16.48
2017-04-13T02:21:15.104Z,16.51
2017-04-13T02:22:25.106Z,16.51
2017-04-13T02:23:35.123Z,16.58
2017-04-13T02:24:45.449Z,16.63
2017-04-13T02:25:55.786Z,16.63
2017-04-13T02:27:05.841Z,16.57
2017-04-13T02:28:16.170Z,16.54
2017-04-13T02:29:26.503Z,16.57
2017-04-13T02:30:36.215Z,16.54
2017-04-13T02:31:46.240Z,16.57
2017-04-13T02:32:56.576Z,16.58
2017-04-13T02:34:06.913Z,16.59
2017-04-13T02:35:17.258Z,16.52
2017-04-13T02:36:27.600Z,16.59
2017-04-13T02:37:37.925Z,16.54
2017-04-13T02:38:48.246Z,16.62
2017-04-13T02:39:58.582Z,16.55
2017-04-13T02:41:08.923Z,16.63
2017-04-13T02:42:19.289Z,16.63
2017-04-13T02:43:29.007Z,16.62
2017-04-13T02:44:39.393Z,16.72
2017-04-13T02:45:49.409Z,16.69
2017-04-13T02:46:59.114Z,16.67
2017-04-13T02:48:09.449Z,16.69
2017-04-13T02:49:19.200Z,16.76
2017-04-13T02:50:29.213Z,16.82
2017-04-13T02:51:39.548Z,16.84
2017-04-13T02:52:49.884Z,16.74
2017-04-13T02:54:00.211Z,16.73
2017-04-13T02:55:09.930Z,16.73
2017-04-13T02:56:20.255Z,16.7
2017-04-13T02:57:29.972Z,16.73
2017-04-13T02:58:40.313Z,16.65
2017-04-13T02:59:50.651Z,16.59
2017-04-13T03:01:01.009Z,16.62
2017-04-13T03:33:02.384Z,14.19
2017-04-13T03:34:12.391Z,14.09
2017-04-13T03:35:22.737Z,14.15
2017-04-13T03:36:33.057Z,14.23
2017-04-13T03:37:43.096Z,14.26
2017-04-13T03:38:53.165Z,14.36
2017-04-13T03:40:03.505Z,14.46
2017-04-13T03:41:13.882Z,14.67
2017-04-13T03:42:24.210Z,14.79
2017-04-13T03:43:34.224Z,14.87
2017-04-13T03:44:44.554Z,15.02
2017-04-13T03:45:54.589Z,15.26
2017-04-13T03:47:04.610Z,15.33
2017-04-13T03:48:14.933Z,15.45
2017-04-13T03:49:25.274Z,15.56
2017-04-13T03:50:35.289Z,15.73
2017-04-13T03:51:45.326Z,15.81
2017-04-13T03:52:55.663Z,15.96
2017-04-13T03:54:05.673Z,16.06
2017-04-13T03:55:15.998Z,16.25
2017-04-13T03:56:26.332Z,16.34
2017-04-13T03:57:36.656Z,16.34
2017-04-13T03:58:46.683Z,16.37
2017-04-13T03:59:57.028Z,16.44
2017-04-13T04:01:07.062Z,16.48
2017-04-13T04:02:16.777Z,16.44
2017-04-13T04:03:27.093Z,16.52
2017-04-13T04:04:37.129Z,16.59
2017-04-13T04:05:47.476Z,16.63
2017-04-13T04:06:57.178Z,16.62
2017-04-13T04:08:07.205Z,16.63
2017-04-13T04:09:17.257Z,16.65
2017-04-13T04:10:27.595Z,16.7
2017-04-13T04:11:37.931Z,16.74
2017-04-13T04:12:47.952Z,16.84
2017-04-13T04:13:57.713Z,16.74
2017-04-13T04:15:08.038Z,16.88
2017-04-13T04:16:18.373Z,16.95
2017-04-13T04:17:28.431Z,16.94
2017-04-13T04:18:38.788Z,16.97
2017-04-13T04:19:49.109Z,17
2017-04-13T04:20:59.126Z,17.05
2017-04-13T04:22:09.457Z,16.9
2017-04-13T04:23:19.854Z,17.06
2017-04-13T04:24:30.193Z,17.05
2017-04-13T04:25:40.528Z,17.07
2017-04-13T04:26:50.554Z,17.22
2017-04-13T04:28:00.886Z,17.1
2017-04-13T04:29:10.941Z,17.2
2017-04-13T04:30:21.269Z,17.15
2017-04-13T04:31:31.615Z,17.12
2017-04-13T04:32:41.962Z,17.13
2017-04-13T04:33:52.288Z,17.18
2017-04-13T04:35:02.614Z,17.13
2017-04-13T04:36:12.948Z,17.13
2017-04-13T04:37:23.279Z,17.03
2017-04-13T04:38:33.626Z,17.17
2017-04-13T04:39:43.637Z,17.21
2017-04-13T04:40:53.384Z,17.05
2017-04-13T04:42:03.402Z,17.09
2017-04-13T04:43:13.432Z,17.1
2017-04-13T04:44:23.764Z,17.1
2017-04-13T04:45:34.103Z,17.09
2017-04-13T04:46:44.433Z,17.09
2017-04-13T04:47:54.783Z,17.13
2017-04-13T04:49:05.125Z,17.12
2017-04-13T04:50:15.466Z,17.18
2017-04-13T04:51:25.505Z,17.17
2017-04-13T04:52:35.845Z,17.21
2017-04-13T04:53:46.233Z,17.28
2017-04-13T04:54:56.261Z,17.22
2017-04-13T04:56:06.603Z,17.2
2017-04-13T04:57:16.934Z,17.17
2017-04-13T04:58:26.994Z,17.2
2017-04-13T04:59:37.017Z,17.27
2017-04-13T05:00:47.353Z,17.36
2017-04-13T05:01:57.680Z,17.31
2017-04-13T05:03:08.017Z,17.38
2017-04-13T05:04:18.351Z,17.36
2017-04-13T05:05:28.684Z,17.43
2017-04-13T05:06:38.661Z,17.35
2017-04-13T05:07:48.645Z,17.3
2017-04-13T05:08:58.690Z,17.28
2017-04-13T05:10:09.022Z,17.15
2017-04-13T05:11:19.364Z,17.2
2017-04-13T05:12:29.716Z,17.09
2017-04-13T05:13:40.046Z,17.07
2017-04-13T05:14:50.374Z,17.06
2017-04-13T05:16:00.415Z,16.99
2017-04-13T05:17:10.453Z,16.99
2017-04-13T05:18:20.780Z,17
2017-04-13T05:19:30.512Z,16.94
2017-04-13T05:20:40.845Z,16.9
2017-04-13T05:21:51.184Z,16.85
2017-04-13T05:23:01.215Z,16.94
2017-04-13T05:24:11.248Z,16.87
2017-04-13T05:25:21.602Z,16.77
2017-04-13T05:26:31.303Z,16.84
2017-04-13T05:27:41.633Z,16.81
2017-04-13T05:28:51.649Z,16.84
2017-04-13T05:30:01.670Z,16.8
2017-04-13T05:31:12.036Z,16.8
2017-04-13T05:32:22.059Z,16.73
2017-04-13T05:33:32.403Z,16.76
2017-04-13T05:34:42.729Z,16.66
2017-04-13T05:35:52.760Z,16.76
2017-04-13T05:37:03.098Z,16.66
2017-04-13T05:38:13.430Z,16.65
2017-04-13T05:39:23.765Z,16.74
2017-04-13T05:40:33.782Z,16.72
2017-04-13T05:41:43.800Z,16.66
2017-04-13T05:42:54.137Z,16.57
2017-04-13T05:44:04.477Z,16.58
2017-04-13T05:45:14.503Z,16.57
2017-04-13T05:46:24.849Z,16.54
2017-04-13T05:47:35.227Z,16.54
2017-04-13T05:48:45.564Z,16.57
2017-04-13T05:49:55.691Z,16.57
2017-04-13T05:51:06.023Z,16.63
2017-04-13T05:52:16.053Z,16.65
2017-04-13T05:53:26.386Z,16.62
2017-04-13T05:54:36.719Z,16.67
2017-04-13T05:55:46.796Z,16.74
2017-04-13T05:56:57.152Z,16.77
2017-04-13T06:04:39.617Z,17.02
2017-04-13T06:05:49.659Z,16.88
2017-04-13T06:06:59.677Z,16.82
2017-04-13T06:08:10.024Z,16.72
2017-04-13T06:09:20.351Z,16.81
2017-04-13T06:10:30.710Z,16.72
2017-04-13T06:11:40.733Z,16.73
2017-04-13T06:12:51.065Z,16.66
2017-04-13T06:14:01.403Z,16.66
2017-04-13T06:15:11.428Z,16.76
2017-04-13T06:16:21.151Z,16.73
2017-04-13T06:17:31.172Z,16.69
2017-04-13T06:18:41.198Z,16.73
2017-04-13T06:19:51.199Z,16.88
2017-04-13T06:21:01.537Z,16.88
2017-04-13T06:22:11.864Z,16.97
2017-04-13T06:23:21.883Z,16.99
2017-04-13T06:24:31.896Z,17.02
2017-04-13T06:25:41.603Z,17.15
2017-04-13T06:26:51.613Z,17.09
2017-04-13T06:28:01.337Z,17.15
2017-04-13T06:29:11.348Z,17.27
2017-04-13T06:30:21.665Z,17.3
2017-04-13T06:31:31.736Z,17.09
2017-04-13T06:32:42.062Z,17.1
2017-04-13T06:33:52.434Z,17.07
2017-04-13T06:35:02.746Z,17.09
2017-04-13T06:36:12.759Z,17.13
2017-04-13T06:37:23.089Z,17.18
2017-04-13T06:38:33.460Z,17.13
2017-04-13T06:39:43.777Z,17.12
2017-04-13T06:40:53.818Z,17.1
2017-04-13T06:42:04.165Z,17.12
2017-04-13T06:43:14.497Z,16.99
2017-04-13T06:44:24.838Z,17.12
2017-04-13T06:45:35.177Z,17.05
2017-04-13T06:46:45.503Z,17.12
2017-04-13T06:47:55.512Z,17.09
2017-04-13T06:49:05.522Z,17.09
2017-04-13T06:50:15.240Z,17.07
2017-04-13T06:51:25.275Z,17.09
2017-04-13T06:52:35.644Z,17.05
2017-04-13T06:53:45.657Z,17.15
2017-04-13T06:54:55.681Z,17.17
2017-04-13T06:56:05.698Z,17.15
2017-04-13T06:57:16.034Z,17.15
2017-04-13T06:58:26.376Z,17.15
2017-04-13T06:59:35.472Z,17.1
2017-04-13T07:00:45.809Z,17.1
2017-04-13T07:01:55.520Z,17.1
2017-04-13T07:03:05.848Z,17.09
2017-04-13T07:04:15.899Z,17.09
2017-04-13T07:05:25.917Z,17.12
2017-04-13T07:06:36.248Z,17.07
2017-04-13T07:07:46.277Z,17.13
2017-04-13T07:08:56.652Z,17.18
2017-04-13T07:10:06.682Z,17.17
2017-04-13T07:11:16.750Z,17.1
2017-04-13T07:12:27.091Z,17.06
2017-04-13T07:13:37.422Z,17.05
2017-04-13T07:14:47.775Z,17.17
2017-04-13T07:15:57.793Z,17.12
2017-04-13T07:17:07.504Z,17.13
2017-04-13T07:18:17.219Z,17.07
2017-04-13T07:19:26.926Z,17.12
2017-04-13T07:20:37.012Z,17.1
2017-04-13T07:21:47.030Z,17.12
2017-04-13T07:22:57.362Z,17.21
2017-04-13T07:24:07.691Z,17.12
2017-04-13T07:25:18.264Z,17.12
2017-04-13T07:26:27.996Z,17.24
2017-04-13T07:27:38.324Z,17.22
2017-04-13T07:28:48.400Z,17.17
2017-04-13T07:29:58.720Z,17.17
2017-04-13T07:31:08.748Z,17.22
2017-04-13T07:32:19.126Z,17.2
2017-04-13T07:33:28.866Z,17.17
2017-04-13T07:34:38.908Z,17.18
2017-04-13T07:35:48.965Z,17.21
2017-04-13T07:36:59.292Z,17.22
2017-04-13T07:38:09.668Z,17.27
2017-04-13T07:39:19.718Z,17.4
2017-04-13T07:40:29.436Z,17.52
2017-04-13T07:41:39.777Z,17.57
2017-04-13T07:42:50.117Z,17.65
2017-04-13T07:44:00.147Z,17.55
2017-04-13T07:45:10.486Z,17.5
2017-04-13T07:46:20.199Z,17.39
2017-04-13T07:47:30.531Z,17.35
2017-04-13T07:48:40.874Z,17.31
2017-04-13T07:49:51.221Z,17.28
2017-04-13T07:51:01.241Z,17.24
2017-04-13T07:52:11.581Z,17.3
2017-04-13T07:53:21.952Z,17.27
2017-04-13T07:54:31.995Z,17.46
2017-04-13T07:55:42.317Z,17.69
2017-04-13T07:56:52.332Z,17.69
2017-04-13T07:58:02.669Z,17.76
2017-04-13T07:59:13.002Z,17.77
2017-04-13T08:00:23.333Z,17.92
2017-04-13T08:01:33.679Z,17.88
2017-04-13T08:02:44.019Z,17.86
2017-04-13T08:03:54.358Z,17.96
2017-04-13T08:05:04.699Z,17.95
2017-04-13T08:06:15.045Z,17.98
2017-04-13T08:07:25.381Z,18.01
2017-04-13T08:08:35.702Z,17.92
2017-04-13T08:09:46.054Z,18.06
2017-04-13T08:10:56.066Z,18.1
2017-04-13T08:12:05.828Z,18.31
2017-04-13T08:13:16.173Z,18.29
2017-04-13T08:14:26.507Z,18.42
2017-04-13T08:15:36.519Z,18.59
2017-04-13T08:16:46.550Z,18.68
2017-04-13T08:17:56.258Z,18.72
2017-04-13T08:19:06.680Z,18.78
2017-04-13T08:20:17.000Z,18.81
2017-04-13T08:21:27.309Z,18.76
2017-04-13T08:22:37.656Z,18.57
2017-04-13T08:23:47.376Z,18.45
2017-04-13T08:24:57.717Z,18.5
2017-04-13T08:26:08.071Z,18.42
2017-04-13T08:27:18.094Z,18.42
2017-04-13T08:28:28.428Z,18.59
2017-04-13T08:29:38.774Z,18.79
2017-04-13T08:30:49.132Z,18.93
2017-04-13T08:31:59.476Z,18.96
2017-04-13T08:33:09.855Z,18.91
2017-04-13T08:34:19.876Z,18.87
2017-04-13T08:35:30.207Z,18.89
2017-04-13T08:36:40.532Z,18.94
2017-04-13T08:37:50.552Z,18.96
2017-04-13T08:39:00.883Z,19
2017-04-13T08:40:10.589Z,19.19
2017-04-13T08:41:20.916Z,19.07
2017-04-13T08:42:31.265Z,18.86
2017-04-13T08:43:41.627Z,18.66
2017-04-13T08:44:51.952Z,18.41
2017-04-13T08:46:02.283Z,18.5
2017-04-13T08:47:12.630Z,18.61
2017-04-13T08:48:22.949Z,18.74
2017-04-13T08:49:33.275Z,18.93
2017-04-13T08:50:43.617Z,19.09
2017-04-13T08:51:53.014Z,19.32
2017-04-13T08:53:03.036Z,19.45
2017-04-13T08:54:13.082Z,19.43
2017-04-13T08:55:23.433Z,19.45
2017-04-13T08:56:33.765Z,19.23
2017-04-13T08:57:43.784Z,19.13
2017-04-13T08:58:54.135Z,19.19
2017-04-13T09:00:04.480Z,19.17
2017-04-13T09:01:14.816Z,19.17
2017-04-13T09:02:24.527Z,19.13
2017-04-13T09:03:34.559Z,18.9
2017-04-13T09:04:44.588Z,18.81
2017-04-13T09:05:54.303Z,18.54
2017-04-13T09:07:04.637Z,18.57
2017-04-13T09:08:15.008Z,18.42
2017-04-13T09:09:24.409Z,18.21
2017-04-13T09:10:34.736Z,18.31
2017-04-13T09:11:45.112Z,18.13
2017-04-13T09:12:55.450Z,18.13
2017-04-13T09:14:04.853Z,18.16
2017-04-13T09:15:14.915Z,18.06
2017-04-13T09:16:24.934Z,17.95
2017-04-13T09:17:34.959Z,17.94
2017-04-13T09:18:44.989Z,17.86
2017-04-13T09:19:55.014Z,17.99
2017-04-13T09:21:04.727Z,17.92
2017-04-13T09:22:15.073Z,17.87
2017-04-13T09:23:25.405Z,17.87
2017-04-13T09:24:35.745Z,17.8
2017-04-13T09:25:45.783Z,17.66
2017-04-13T09:26:56.155Z,17.65
2017-04-13T09:28:06.503Z,17.52
2017-04-13T09:29:16.542Z,17.6
2017-04-13T09:30:26.871Z,17.5
2017-04-13T09:31:37.194Z,17.47
2017-04-13T09:32:47.522Z,17.45
2017-04-13T09:33:57.854Z,17.45
2017-04-13T09:35:07.881Z,17.47
2017-04-13T09:36:18.228Z,17.45
2017-04-13T09:37:28.556Z,17.46
2017-04-13T09:38:38.877Z,17.46
2017-04-13T09:39:48.893Z,17.45
2017-04-13T09:40:59.235Z,17.35
2017-04-13T09:42:09.577Z,17.1
2017-04-13T09:43:19.916Z,16.97
2017-04-13T09:44:30.265Z,16.66
2017-04-13T09:45:40.603Z,16.58
2017-04-13T09:46:50.954Z,16.44
2017-04-13T09:48:01.285Z,16.4
2017-04-13T09:49:11.622Z,16.32
2017-04-13T09:50:21.633Z,16.22
2017-04-13T09:51:31.962Z,16.08
2017-04-13T09:52:42.293Z,16.08
2017-04-13T09:53:52.629Z,15.86
2017-04-13T09:55:02.957Z,15.74
2017-04-13T09:56:13.297Z,15.68
2017-04-13T09:57:23.625Z,15.52
2017-04-13T09:58:33.958Z,15.37
2017-04-13T09:59:44.305Z,15.2
2017-04-13T10:00:54.334Z,15.15
2017-04-13T10:02:04.357Z,15.07
2017-04-13T10:03:14.689Z,14.9
2017-04-13T10:04:25.006Z,14.71
2017-04-13T10:05:35.342Z,14.7
2017-04-13T10:06:45.694Z,14.66
2017-04-13T10:07:56.031Z,14.64
2017-04-13T10:09:05.739Z,14.74
2017-04-13T10:10:16.065Z,14.67
2017-04-13T10:11:26.404Z,14.51
2017-04-13T10:12:36.742Z,14.48
2017-04-13T10:13:47.078Z,14.51
2017-04-13T10:14:57.111Z,14.53
2017-04-13T10:16:06.864Z,14.64
2017-04-13T10:17:16.888Z,14.86
2017-04-13T10:18:27.220Z,15.12
2017-04-13T10:19:37.253Z,15.18
2017-04-13T10:20:47.305Z,15.31
2017-04-13T10:21:57.642Z,15.35
2017-04-13T10:23:07.984Z,15.41
2017-04-13T10:24:18.021Z,15.52
2017-04-13T10:25:28.043Z,15.53
2017-04-13T10:26:38.372Z,15.6
2017-04-13T10:27:48.709Z,15.74
2017-04-13T10:28:59.052Z,15.92
2017-04-13T10:30:09.072Z,15.96
2017-04-13T10:31:19.406Z,15.92
2017-04-13T10:32:29.441Z,15.92
2017-04-13T10:33:39.480Z,15.8
2017-04-13T10:34:49.816Z,15.75
2017-04-13T10:36:00.160Z,15.75
2017-04-13T10:37:10.192Z,15.74
2017-04-13T10:38:20.534Z,15.75
2017-04-13T10:39:30.902Z,15.63
2017-04-13T10:40:40.937Z,15.45
2017-04-13T10:41:51.266Z,15.37
2017-04-13T10:43:00.983Z,15.26
2017-04-13T10:44:11.002Z,15.1
2017-04-13T10:45:21.331Z,15.07
2017-04-13T10:46:31.356Z,14.89
2017-04-13T10:47:41.697Z,14.9
2017-04-13T10:48:51.721Z,14.9
2017-04-13T10:50:01.735Z,14.97
2017-04-13T10:51:11.774Z,15.04
2017-04-13T10:52:22.093Z,15.15
2017-04-13T10:53:32.112Z,15.35
2017-04-13T10:54:42.429Z,15.63
2017-04-13T10:55:52.463Z,15.77
2017-04-13T10:57:02.484Z,16.02
2017-04-13T10:58:12.500Z,16.3
2017-04-13T10:59:22.518Z,16.47
2017-04-13T11:00:32.560Z,16.59
2017-04-13T11:01:42.579Z,16.9
2017-04-13T11:02:52.926Z,17.24
2017-04-13T11:04:02.952Z,17.36
2017-04-13T11:05:13.281Z,17.31
2017-04-13T11:06:23.622Z,17.46
2017-04-13T11:07:34.219Z,17.69
2017-04-13T11:08:45.294Z,17.98
2017-04-13T11:09:55.627Z,18.16
2017-04-13T11:11:05.658Z,18.16
2017-04-13T11:12:15.992Z,18.39
2017-04-13T11:13:26.328Z,18.47
2017-04-13T11:14:36.349Z,18.63
2017-04-13T11:15:46.387Z,18.59
2017-04-13T11:16:56.117Z,18.63
2017-04-13T11:18:06.135Z,18.69
2017-04-13T11:19:16.480Z,18.86
2017-04-13T11:20:26.547Z,18.82
2017-04-13T11:21:36.894Z,18.59
2017-04-13T11:22:46.609Z,18.39
2017-04-13T11:23:55.993Z,18.06
2017-04-13T11:25:06.020Z,17.95
2017-04-13T11:26:15.732Z,17.87
2017-04-13T11:27:25.772Z,17.76
2017-04-13T11:28:36.126Z,17.73
2017-04-13T11:29:46.476Z,17.73
2017-04-13T11:30:56.503Z,17.79
2017-04-13T11:32:06.863Z,17.66
2017-04-13T11:33:16.876Z,17.52
2017-04-13T11:34:27.223Z,17.47
2017-04-13T11:35:37.240Z,17.18
2017-04-13T11:36:47.252Z,17.15
2017-04-13T11:37:57.279Z,17.15
2017-04-13T11:39:06.996Z,17.1
2017-04-13T11:40:17.016Z,17.07
2017-04-13T11:41:27.047Z,17.12
2017-04-13T11:42:36.769Z,17.24
2017-04-13T11:43:47.111Z,17.25
2017-04-13T11:44:57.439Z,17.28
2017-04-13T11:46:07.474Z,17.49
2017-04-13T11:47:17.829Z,17.65
2017-04-13T11:48:28.174Z,17.81
2017-04-13T11:49:38.556Z,17.9
2017-04-13T11:50:48.897Z,17.79
2017-04-13T11:51:58.604Z,17.84
2017-04-13T11:53:08.941Z,17.92
2017-04-13T11:54:19.282Z,17.98
2017-04-13T11:55:29.621Z,18.01
2017-04-13T11:56:39.951Z,18.11
2017-04-13T11:57:49.971Z,18.16
2017-04-13T11:58:59.990Z,18.2
2017-04-13T12:00:10.321Z,18.66
2017-04-13T12:01:20.731Z,19.07
2017-04-13T12:02:31.065Z,19.23
2017-04-13T12:03:41.102Z,19.24
2017-04-13T12:04:51.128Z,19.46
2017-04-13T12:06:01.669Z,19.17
2017-04-13T12:07:11.382Z,19.17
2017-04-13T12:08:21.409Z,19.23
2017-04-13T12:09:31.451Z,19.43
2017-04-13T12:10:41.469Z,19.35
2017-04-13T12:11:51.493Z,19.67
2017-04-13T12:13:01.524Z,20.07
2017-04-13T12:14:11.538Z,20.19
2017-04-13T12:15:21.559Z,20.41
2017-04-13T12:16:30.976Z,20.66
2017-04-13T12:17:41.305Z,21.27
2017-04-13T12:18:51.671Z,21.96
2017-04-13T12:20:02.031Z,22.52
2017-04-13T12:21:12.059Z,22.42
2017-04-13T12:22:22.399Z,22.26
2017-04-13T12:23:32.425Z,22.16
2017-04-13T12:24:42.762Z,21.89
2017-04-13T12:25:53.103Z,21.55
2017-04-13T12:27:03.458Z,21.11
2017-04-13T12:28:13.480Z,20.66
2017-04-13T12:29:23.805Z,20.25
2017-04-13T12:30:34.137Z,20.08
2017-04-13T12:31:44.475Z,19.93
2017-04-13T12:32:54.814Z,20.11
2017-04-13T12:34:05.165Z,20.41
2017-04-13T12:35:15.487Z,20.41
2017-04-13T12:36:25.809Z,20.41
2017-04-13T12:37:36.166Z,20.27
2017-04-13T12:38:46.521Z,20.1
2017-04-13T12:39:56.549Z,20.11
2017-04-13T12:41:06.888Z,20.16
2017-04-13T12:42:17.238Z,20.1
2017-04-13T12:43:26.950Z,20.04
2017-04-13T12:44:36.662Z,19.98
2017-04-13T12:45:47.007Z,19.79
2017-04-13T12:46:57.340Z,19.49
2017-04-13T12:48:07.723Z,19.23
2017-04-13T12:49:18.064Z,18.94
2017-04-13T12:50:28.389Z,18.79
2017-04-13T12:51:38.738Z,18.87
2017-04-13T12:52:48.779Z,18.68
2017-04-13T12:53:58.483Z,18.74
2017-04-13T12:55:08.822Z,18.69
2017-04-13T12:56:19.177Z,18.9
2017-04-13T12:57:29.192Z,19.19
2017-04-13T12:58:39.221Z,19.43
2017-04-13T12:59:49.563Z,19.46
2017-04-13T13:01:00.123Z,19.52
2017-04-13T13:02:11.361Z,19.43
2017-04-13T13:03:21.733Z,19.35
2017-04-13T13:04:32.146Z,19.28
2017-04-13T13:05:42.485Z,19.32
2017-04-13T13:06:52.826Z,19.5
2017-04-13T13:08:02.848Z,19.78
2017-04-13T13:09:13.206Z,20.08
2017-04-13T13:10:23.535Z,20.48
2017-04-13T13:11:33.871Z,20.66
2017-04-13T13:12:44.207Z,20.9
2017-04-13T13:13:54.559Z,21.11
2017-04-13T13:15:04.585Z,21.4
2017-04-13T13:16:14.938Z,21.36
2017-04-13T13:17:25.280Z,21.06
2017-04-13T13:18:35.610Z,20.81
2017-04-13T13:19:45.648Z,20.49
2017-04-13T13:20:55.372Z,20.23
2017-04-13T13:22:05.706Z,19.92
2017-04-13T13:23:16.048Z,19.82
2017-04-13T13:24:26.398Z,19.67
2017-04-13T13:25:36.736Z,19.46
2017-04-13T13:26:47.081Z,19.16
2017-04-13T13:27:57.416Z,18.84
2017-04-13T13:29:07.437Z,18.78
2017-04-13T13:30:17.464Z,18.72
2017-04-13T13:31:27.497Z,18.56
2017-04-13T13:32:37.881Z,18.42
2017-04-13T13:33:47.918Z,18.42
2017-04-13T13:34:57.946Z,18.26
2017-04-13T13:36:08.288Z,18.45
2017-04-13T13:37:18.638Z,18.44
2017-04-13T13:38:28.983Z,18.42
2017-04-13T13:39:38.696Z,18.14
2017-04-13T13:40:48.725Z,18.08
2017-04-13T13:41:59.060Z,17.96
2017-04-13T13:43:08.464Z,17.86
2017-04-13T13:44:18.799Z,17.87
2017-04-13T13:45:29.140Z,17.73
2017-04-13T13:46:38.853Z,17.71
2017-04-13T13:47:49.184Z,17.46
2017-04-13T13:48:59.505Z,17.38
2017-04-13T13:50:09.532Z,17.31
2017-04-13T13:51:19.878Z,17.36
2017-04-13T13:52:30.202Z,17.55
2017-04-13T13:53:40.462Z,17.69
2017-04-13T13:54:50.479Z,17.88
2017-04-13T13:56:00.805Z,18.08
2017-04-13T13:57:10.837Z,18.35
2017-04-13T13:58:21.179Z,18.75
2017-04-13T13:59:31.524Z,19.3
2017-04-13T14:00:41.868Z,19.64
2017-04-13T14:01:51.919Z,19.83
2017-04-13T14:03:02.268Z,19.8
2017-04-13T14:04:12.294Z,19.85
2017-04-13T14:05:22.630Z,19.52
2017-04-13T14:06:32.660Z,19.13
2017-04-13T14:07:42.403Z,18.96
2017-04-13T14:08:52.455Z,18.87
2017-04-13T14:10:02.786Z,18.9
2017-04-13T14:11:13.124Z,18.96
2017-04-13T14:12:23.469Z,19.3
2017-04-13T14:13:33.823Z,19.28
2017-04-13T14:14:44.165Z,18.93
2017-04-13T14:15:54.505Z,18.82
2017-04-13T14:17:04.841Z,18.74
2017-04-13T14:18:15.180Z,18.68
2017-04-13T14:19:25.211Z,18.65
2017-04-13T14:20:35.577Z,18.79
2017-04-13T14:21:45.926Z,19.13
2017-04-13T14:22:55.951Z,19.25
2017-04-13T14:24:06.291Z,19.7
2017-04-13T14:25:16.621Z,19.63
2017-04-13T14:26:26.342Z,19.52
2017-04-13T14:27:36.381Z,19.53
2017-04-13T14:28:46.730Z,19.65
2017-04-13T14:29:57.089Z,19.63
2017-04-13T14:31:07.174Z,19.78
2017-04-13T14:32:17.532Z,20.22
2017-04-13T14:33:27.882Z,20.44
2017-04-13T14:34:38.213Z,20.78
2017-04-13T14:35:48.555Z,21.11
2017-04-13T14:36:58.576Z,21.22
2017-04-13T14:38:08.922Z,21.4
2017-04-13T14:39:18.966Z,21.52
2017-04-13T14:40:29.003Z,21.45
2017-04-13T14:41:39.359Z,21.61
2017-04-13T14:42:49.075Z,21.58
2017-04-13T14:43:59.429Z,21.61
2017-04-13T14:45:09.784Z,21.58
2017-04-13T14:46:20.142Z,21.58
2017-04-13T14:47:30.188Z,21.46
2017-04-13T14:48:40.522Z,21.3
2017-04-13T14:49:50.857Z,21.06
2017-04-13T14:51:00.582Z,20.93
2017-04-13T14:52:10.932Z,20.91
2017-04-13T14:53:21.294Z,20.61
2017-04-13T14:54:31.024Z,20.08
2017-04-13T14:55:41.423Z,19.75
2017-04-13T14:56:51.781Z,19.45
2017-04-13T14:58:01.838Z,19.27
2017-04-13T14:59:11.874Z,19.12
2017-04-13T15:00:22.211Z,18.94
2017-04-13T15:01:32.541Z,18.87
2017-04-13T15:02:42.883Z,18.78
2017-04-13T15:03:53.242Z,18.63
2017-04-13T15:05:02.985Z,18.41
2017-04-13T15:06:13.011Z,18.27
2017-04-13T15:07:23.387Z,18.14
2017-04-13T15:08:33.729Z,18.14
2017-04-13T15:09:44.096Z,18.14
2017-04-13T15:10:53.822Z,18.2
2017-04-13T15:12:04.205Z,18.13
2017-04-13T15:13:14.547Z,18.31
2017-04-13T15:14:24.897Z,18.41
2017-04-13T15:15:35.228Z,18.41
2017-04-13T15:16:45.252Z,18.26
2017-04-13T15:17:54.984Z,18.21
2017-04-13T15:19:05.339Z,18.16
2017-04-13T15:20:15.696Z,17.99
2017-04-13T15:21:26.038Z,17.87
2017-04-13T15:22:36.055Z,17.74
2017-04-13T15:23:46.406Z,17.66
2017-04-13T15:24:56.753Z,17.55
2017-04-13T15:26:06.775Z,17.57
2017-04-13T15:27:17.114Z,17.31
2017-04-13T15:28:27.142Z,17.38
2017-04-13T15:29:37.486Z,17.27
2017-04-13T15:30:47.837Z,17.2
2017-04-13T15:31:57.912Z,17.21
2017-04-13T15:33:07.964Z,17.12
2017-04-13T15:34:17.681Z,17.13
2017-04-13T15:35:27.723Z,17.06
2017-04-13T15:36:38.069Z,16.92
2017-04-13T15:37:48.092Z,16.85
2017-04-13T15:38:58.433Z,16.84
2017-04-13T15:40:08.771Z,16.76
2017-04-13T15:41:18.827Z,16.66
2017-04-13T15:42:29.153Z,16.58
2017-04-13T15:43:39.537Z,16.55
2017-04-13T15:44:49.867Z,16.47